Terminal Aerodrome Forecast
Issued by NWS Jackson, MS

Home | Current Version | Previous Version | Text Only | Print | Product List | Glossary On
Versions: 1 2 3 4 5 6 7 8 9 10 11 12 13 14 15 16 17 18 19 20
000
FTUS44 KJAN 221156 RRB
TAFJAN
TAF
KJAN 221156Z 2212/2312 13010G20KT P6SM VCSH SCT015 BKN025 BKN250
     FM221600 15014G24KT 6SM -SHRA VCTS BKN025CB BKN050
     FM221900 16017G27KT 5SM SHRA VCTS SCT025 BKN050CB
     FM230100 16014G24KT P6SM VCSH BKN025 BKN050
     FM230600 16013G23KT P6SM VCSH BKN015 BKN250=

USA.gov is the U.S. government's official web portal to all federal, state and local government web resources and services.